Time;durP1;ratioP1;P1;durP2;ratioP2;P2;SDS_P1;SDS_P2;PMS_P1;PMS_P2;Temp;Humidity;BMP_temperature;BMP_pressure;BME280_temperature;BME280_humidity;BME280_pressure;Samples;Min_cycle;Max_cycle;Signal;HPM_P1;HPM_P2
2023/10/15 00:00:31;;;;;;;8.18;6.20;;;;;;;24.15;52.63;100562.63;4981938;28;20058;-60
2023/10/15 00:02:59;;;;;;;6.40;5.68;;;;;;;24.17;52.79;100562.44;4985390;28;20054;-60
2023/10/15 00:05:26;;;;;;;8.18;5.65;;;;;;;24.17;52.68;100571.38;4984102;28;20072;-61
2023/10/15 00:07:54;;;;;;;7.88;5.82;;;;;;;24.17;52.45;100562.44;5012902;28;20058;-60
2023/10/15 00:10:23;;;;;;;9.57;5.78;;;;;;;24.16;52.53;100553.47;4985603;28;20051;-49
2023/10/15 00:12:53;;;;;;;10.02;6.80;;;;;;;24.17;52.52;100549.75;4985736;28;20054;-52
2023/10/15 00:15:27;;;;;;;8.98;5.63;;;;;;;24.17;52.47;100547.03;4982590;28;20054;-52
2023/10/15 00:17:59;;;;;;;9.32;6.13;;;;;;;24.17;52.56;100546.19;4981528;28;20039;-52
2023/10/15 00:20:38;;;;;;;6.03;5.28;;;;;;;24.17;52.83;100547.03;4982658;28;20552;-53
2023/10/15 00:23:06;;;;;;;7.18;5.82;;;;;;;24.18;52.86;100548.75;4983886;28;20054;-52
2023/10/15 00:25:36;;;;;;;7.15;5.68;;;;;;;24.17;52.40;100540.78;5011423;28;20105;-52
2023/10/15 00:28:09;;;;;;;8.98;6.25;;;;;;;24.18;52.78;100540.63;4985435;28;20046;-51
2023/10/15 00:30:37;;;;;;;8.35;6.28;;;;;;;24.18;52.90;100535.22;4993356;28;20505;-50
2023/10/15 00:33:08;;;;;;;8.55;5.97;;;;;;;24.18;52.48;100528.94;4991028;28;20050;-49
2023/10/15 00:35:36;;;;;;;7.63;5.63;;;;;;;24.18;52.52;100531.66;4988417;28;20050;-50
2023/10/15 00:38:10;;;;;;;8.38;6.25;;;;;;;24.18;52.93;100526.25;4983280;28;20047;-51
2023/10/15 00:40:38;;;;;;;8.23;5.88;;;;;;;24.18;52.72;100520.84;4985453;28;20051;-49
2023/10/15 00:43:06;;;;;;;7.57;5.85;;;;;;;24.19;52.44;100522.53;4979566;28;20051;-52
2023/10/15 00:45:39;;;;;;;6.35;5.55;;;;;;;24.18;52.82;100521.72;4986829;28;20050;-53
2023/10/15 00:48:08;;;;;;;8.07;5.40;;;;;;;24.18;52.57;100508.19;4992518;28;20064;-50
2023/10/15 00:50:41;;;;;;;7.68;5.15;;;;;;;24.19;52.50;100495.50;4986608;28;20039;-52
2023/10/15 00:53:23;;;;;;;;;;;;;;;24.17;52.79;100495.66;4986234;28;20061;-50
2023/10/15 00:56:04;;;;;;;8.27;5.68;;;;;;;24.18;52.45;100486.53;4986548;28;20328;-50
2023/10/15 01:03:59;;;;;;;7.10;5.43;;;;;;;24.18;52.80;100477.56;4992379;28;20061;-60
2023/10/15 01:09:17;;;;;;;7.38;4.93;;;;;;;24.19;52.71;100471.16;4997948;28;20054;-60
2023/10/15 01:11:58;;;;;;;6.25;5.18;;;;;;;24.18;52.49;100474.84;4986258;28;20489;-61
2023/10/15 01:14:31;;;;;;;8.43;5.18;;;;;;;24.18;52.52;100472.16;4985127;28;20058;-60
2023/10/15 01:17:00;;;;;;;7.55;5.00;;;;;;;24.18;52.64;100473.03;4982442;28;20421;-61
2023/10/15 01:19:34;;;;;;;5.30;4.80;;;;;;;24.19;52.84;100473.88;4989896;28;20051;-60
2023/10/15 01:22:07;;;;;;;6.95;5.63;;;;;;;24.21;52.75;100479.09;4985774;28;20061;-60
2023/10/15 01:24:36;;;;;;;6.30;5.05;;;;;;;24.20;52.75;100474.69;4982585;28;20062;-61
2023/10/15 01:27:09;;;;;;;7.35;5.20;;;;;;;24.19;52.40;100454.94;4982735;28;20053;-61
2023/10/15 01:29:47;;;;;;;7.97;5.32;;;;;;;24.20;52.45;100477.41;5011231;28;20046;-60
2023/10/15 01:32:30;;;;;;;7.60;5.78;;;;;;;24.18;52.49;100470.31;4984330;28;20046;-60
2023/10/15 01:35:00;;;;;;;;;;;;;;;24.16;52.47;100461.50;4986557;28;20063;-61
2023/10/15 01:37:30;;;;;;;6.68;5.68;;;;;;;24.18;52.80;100473.03;4986033;28;19929;-60
2023/10/15 01:42:44;;;;;;;7.30;4.88;;;;;;;24.19;52.44;100454.94;4984149;28;20061;-60
2023/10/15 01:50:23;;;;;;;6.90;5.00;;;;;;;24.20;52.59;100455.78;4985180;28;20500;-60
2023/10/15 01:53:01;;;;;;;6.25;5.05;;;;;;;24.20;52.57;100447.66;4986201;28;20077;-60
2023/10/15 01:55:30;;;;;;;8.23;5.45;;;;;;;24.20;52.90;100442.25;4980790;28;20058;-60
2023/10/15 01:58:00;;;;;;;7.07;5.13;;;;;;;24.20;52.81;100450.34;4983747;28;20050;-60
2023/10/15 02:00:54;;;;;;;6.97;4.47;;;;;;;24.20;52.75;100448.50;4989121;28;20055;-61
2023/10/15 02:03:20;;;;;;;6.45;5.78;;;;;;;24.19;52.79;100446.81;4978850;28;20064;-61
2023/10/15 02:05:48;;;;;;;5.93;4.65;;;;;;;24.19;52.63;100441.41;4983804;28;20489;-60
2023/10/15 02:08:25;;;;;;;6.85;4.18;;;;;;;24.20;52.85;100443.09;4987721;28;20050;-60
2023/10/15 02:10:52;;;;;;;6.57;5.00;;;;;;;24.20;52.33;100443.09;4984730;28;20053;-61
2023/10/15 02:13:26;;;;;;;6.15;5.20;;;;;;;24.21;52.50;100449.34;4985909;28;20065;-60
2023/10/15 02:15:57;;;;;;;6.13;4.97;;;;;;;24.21;52.83;100438.50;5006294;28;20054;-60
2023/10/15 02:18:29;;;;;;;6.50;5.10;;;;;;;24.21;52.82;100443.94;4982562;28;20054;-60
2023/10/15 02:23:25;;;;;;;6.63;4.65;;;;;;;24.20;52.95;100440.38;4982261;28;20058;-60
2023/10/15 02:25:57;;;;;;;6.90;5.10;;;;;;;24.20;52.59;100437.69;4980543;28;20417;-60
2023/10/15 02:28:30;;;;;;;6.28;5.07;;;;;;;24.20;52.65;100440.38;4990544;28;20054;-60
2023/10/15 02:33:30;;;;;;;6.18;3.95;;;;;;;24.21;52.59;100433.94;4981837;28;20058;-49
2023/10/15 02:35:59;;;;;;;5.65;4.70;;;;;;;24.21;52.82;100433.09;4982397;28;20619;-50
2023/10/15 02:38:36;;;;;;;6.95;4.78;;;;;;;24.21;52.65;100431.25;4992045;28;20054;-50
2023/10/15 02:41:04;;;;;;;6.80;4.90;;;;;;;24.20;52.67;100424.16;4983769;28;20057;-60
2023/10/15 02:43:33;;;;;;;6.43;4.30;;;;;;;24.21;52.65;100427.69;4981902;28;20421;-60
2023/10/15 02:46:00;;;;;;;6.40;5.35;;;;;;;24.21;52.91;100433.09;4988380;28;20122;-60
2023/10/15 02:48:31;;;;;;;5.07;4.45;;;;;;;24.20;52.90;100434.13;4988307;28;20429;-60
2023/10/15 02:51:07;;;;;;;5.90;4.78;;;;;;;24.20;52.96;100437.69;4987118;28;20054;-60
2023/10/15 02:53:39;;;;;;;6.80;4.82;;;;;;;24.21;53.01;100442.06;4981949;28;20051;-60
2023/10/15 02:56:13;;;;;;;5.50;4.72;;;;;;;24.21;52.78;100438.50;4985434;28;20404;-60
2023/10/15 02:58:42;;;;;;;6.45;4.10;;;;;;;24.20;52.75;100439.53;4988335;28;20054;-60
2023/10/15 03:01:20;;;;;;;5.07;4.32;;;;;;;24.20;52.98;100445.78;4981795;28;20520;-50
2023/10/15 03:03:52;;;;;;;6.40;4.93;;;;;;;24.20;52.76;100442.25;4981910;28;20054;-49
2023/10/15 03:06:27;;;;;;;6.15;4.50;;;;;;;24.20;53.02;100443.09;4988605;28;20417;-52
2023/10/15 03:08:56;;;;;;;6.25;4.47;;;;;;;24.20;52.94;100447.66;4987628;28;20065;-53
2023/10/15 03:11:25;;;;;;;5.45;4.85;;;;;;;24.20;52.97;100448.50;4981908;28;20042;-61
2023/10/15 03:13:53;;;;;;;6.50;4.43;;;;;;;24.21;53.06;100447.47;4992049;28;20062;-60
2023/10/15 03:16:24;;;;;;;9.30;4.53;;;;;;;24.21;53.11;100454.75;4987960;28;20443;-60
2023/10/15 03:18:52;;;;;;;6.45;4.47;;;;;;;24.21;52.89;100436.66;4991247;28;20065;-56
2023/10/15 03:21:30;;;;;;;5.63;4.47;;;;;;;24.21;53.17;100435.81;4996949;28;20061;-50
2023/10/15 03:23:58;;;;;;;6.57;4.57;;;;;;;24.21;53.11;100433.09;4989912;28;20080;-49
2023/10/15 03:26:32;;;;;;;7.07;4.90;;;;;;;24.21;53.21;100439.34;4986586;28;20388;-51
2023/10/15 03:29:00;;;;;;;5.43;4.53;;;;;;;24.21;52.90;100438.50;4986843;28;20061;-60
2023/10/15 03:31:28;;;;;;;5.85;4.72;;;;;;;24.21;53.10;100436.66;4989848;28;20057;-60
2023/10/15 03:36:57;;;;;;;6.20;4.63;;;;;;;24.20;53.17;100436.84;4985290;28;20051;-60
2023/10/15 03:39:26;;;;;;;8.52;4.03;;;;;;;24.21;53.05;100438.50;4988248;28;20046;-60
2023/10/15 03:42:09;;;;;;;6.05;4.93;;;;;;;24.21;52.83;100444.75;4991495;28;20080;-60
2023/10/15 03:44:49;;;;;;;6.43;4.35;;;;;;;24.20;53.05;100434.97;4984901;28;20047;-60
2023/10/15 03:47:22;;;;;;;5.82;4.55;;;;;;;24.20;53.31;100434.13;4987872;28;20057;-62
2023/10/15 03:49:55;;;;;;;4.95;4.32;;;;;;;24.15;53.24;100438.19;4992495;28;20054;-62
2023/10/15 03:52:22;;;;;;;6.07;4.65;;;;;;;24.12;53.13;100440.41;4985167;28;20058;-58
2023/10/15 03:54:51;;;;;;;7.18;5.05;;;;;;;24.09;52.80;100433.47;4986652;28;20062;-58
2023/10/15 03:57:38;;;;;;;6.40;4.93;;;;;;;24.08;52.54;100439.06;4988981;28;20053;-58
2023/10/15 04:00:16;;;;;;;5.40;4.40;;;;;;;24.04;52.96;100435.84;4985365;28;20422;-61
2023/10/15 04:03:01;;;;;;;7.22;5.20;;;;;;;24.01;52.66;100435.34;4987106;28;20057;-62
2023/10/15 04:05:31;;;;;;;8.70;5.20;;;;;;;24.00;53.07;100437.22;4988686;28;20053;-62
2023/10/15 04:07:58;;;;;;;7.00;5.18;;;;;;;23.98;52.99;100436.53;4993465;28;20059;-62
2023/10/15 04:10:34;;;;;;;7.07;5.18;;;;;;;23.95;52.63;100434.19;4985747;28;20053;-58
2023/10/15 04:13:04;;;;;;;5.60;4.68;;;;;;;23.93;52.71;100434.34;4982740;28;20061;-58
2023/10/15 04:15:34;;;;;;;6.65;5.55;;;;;;;23.92;52.72;100437.22;4987737;28;20046;-58
2023/10/15 04:18:02;;;;;;;6.28;4.75;;;;;;;23.91;52.85;100427.44;4985375;28;20051;-58
2023/10/15 04:20:41;;;;;;;7.88;5.68;;;;;;;23.89;52.46;100424.03;4987115;28;20062;-58
2023/10/15 04:23:12;;;;;;;7.90;5.30;;;;;;;23.89;52.40;100418.63;4988313;28;20054;-58
2023/10/15 04:25:40;;;;;;;9.43;5.65;;;;;;;23.87;52.38;100410.72;4985213;28;20058;-57
2023/10/15 04:28:14;;;;;;;7.47;5.10;;;;;;;23.87;52.33;100413.41;4985216;28;20051;-57
2023/10/15 04:30:42;;;;;;;6.45;5.25;;;;;;;23.85;52.26;100412.72;4981562;28;20047;-58
2023/10/15 04:33:13;;;;;;;7.10;6.10;;;;;;;23.84;52.57;100405.63;4986971;28;20061;-57
2023/10/15 04:35:41;;;;;;;7.25;5.95;;;;;;;23.84;52.49;100410.22;4985000;28;20059;-58
2023/10/15 04:38:10;;;;;;;6.13;5.32;;;;;;;23.82;52.23;100402.28;4986349;28;20047;-58
2023/10/15 04:40:48;;;;;;;6.60;5.80;;;;;;;23.81;52.61;100408.69;4988053;28;20390;-58
2023/10/15 04:43:17;;;;;;;8.50;5.55;;;;;;;23.79;52.42;100408.03;4985293;28;20051;-58
2023/10/15 04:45:46;;;;;;;8.85;5.88;;;;;;;23.78;52.70;100411.75;4984749;28;20062;-58
2023/10/15 04:48:15;;;;;;;7.75;5.45;;;;;;;23.78;52.81;100410.88;4987653;28;20050;-58
2023/10/15 04:50:43;;;;;;;8.25;5.97;;;;;;;23.78;52.54;100405.47;4993363;28;20038;-62
2023/10/15 04:53:23;;;;;;;6.82;5.70;;;;;;;23.78;52.58;100400.06;4991623;28;20042;-62
2023/10/15 04:55:52;;;;;;;9.40;5.75;;;;;;;23.77;52.41;100409.19;4986705;28;20494;-62
2023/10/15 04:58:20;;;;;;;7.60;5.90;;;;;;;23.77;52.41;100407.34;4988421;28;20547;-62
2023/10/15 05:00:48;;;;;;;6.82;5.78;;;;;;;23.76;52.41;100407.53;4986987;28;20050;-58
2023/10/15 05:03:16;;;;;;;6.13;5.47;;;;;;;23.75;52.25;100409.38;4984231;28;20051;-58
2023/10/15 05:05:45;;;;;;;8.82;5.85;;;;;;;23.76;52.15;100410.22;4987100;28;20503;-58
2023/10/15 05:08:13;;;;;;;6.93;5.95;;;;;;;23.75;52.22;100411.25;4987776;28;20409;-58
2023/10/15 05:10:49;;;;;;;10.18;6.70;;;;;;;23.76;52.65;100413.75;4986438;28;20066;-62
2023/10/15 05:13:18;;;;;;;8.00;6.05;;;;;;;23.75;52.38;100409.38;4984537;28;20485;-62
2023/10/15 05:15:46;;;;;;;8.35;6.60;;;;;;;23.75;52.24;100412.09;4987872;28;20046;-62
2023/10/15 05:18:15;;;;;;;7.05;6.10;;;;;;;23.75;52.49;100412.09;4988265;28;20057;-62
2023/10/15 05:20:49;;;;;;;8.65;6.43;;;;;;;23.74;52.70;100410.41;4984617;28;20066;-62
2023/10/15 05:23:18;;;;;;;8.75;6.45;;;;;;;23.74;52.49;100413.09;4985512;28;20095;-62
2023/10/15 05:25:46;;;;;;;8.43;6.40;;;;;;;23.74;52.55;100414.94;4981024;28;20057;-62
2023/10/15 05:28:14;;;;;;;9.45;6.38;;;;;;;23.73;52.83;100413.25;4987218;28;20046;-62
2023/10/15 05:30:42;;;;;;;7.97;6.60;;;;;;;23.72;52.81;100411.56;4983796;28;20043;-58
2023/10/15 05:33:10;;;;;;;8.15;6.68;;;;;;;23.72;52.93;100414.28;4986210;28;20051;-58
2023/10/15 05:35:37;;;;;;;9.70;6.10;;;;;;;23.71;52.81;100409.91;4987200;28;20073;-58
2023/10/15 05:38:08;;;;;;;8.02;6.63;;;;;;;23.68;52.96;100408.38;4986299;28;20053;-58
2023/10/15 05:40:37;;;;;;;9.20;6.30;;;;;;;23.66;53.24;100405.00;4983913;28;20408;-62
2023/10/15 05:43:05;;;;;;;8.82;6.38;;;;;;;23.65;53.05;100403.25;4985920;28;20050;-62
2023/10/15 05:45:32;;;;;;;9.73;6.47;;;;;;;23.64;52.88;100404.28;4986342;28;20046;-62
2023/10/15 05:48:00;;;;;;;12.48;7.22;;;;;;;23.64;52.67;100410.53;4985953;28;20054;-62
2023/10/15 05:50:29;;;;;;;7.70;6.85;;;;;;;23.62;52.88;100399.06;4988512;28;20050;-61
2023/10/15 05:52:56;;;;;;;8.27;6.55;;;;;;;23.64;52.88;100410.53;4989520;28;20485;-62
2023/10/15 05:55:24;;;;;;;8.60;5.72;;;;;;;23.62;52.81;100412.56;4987875;28;20047;-62
2023/10/15 05:57:51;;;;;;;7.93;6.47;;;;;;;23.60;52.68;100417.28;4986633;28;20046;-62
2023/10/15 06:00:19;;;;;;;9.95;6.10;;;;;;;23.60;52.90;100422.69;4983801;28;20057;-58
2023/10/15 06:02:48;;;;;;;8.50;7.07;;;;;;;23.59;52.95;100420.19;4986157;28;20509;-58
2023/10/15 06:05:16;;;;;;;7.10;5.82;;;;;;;23.59;52.93;100421.03;4987529;28;20046;-58
2023/10/15 06:07:44;;;;;;;8.38;7.00;;;;;;;23.59;53.06;100418.31;4985475;28;20046;-58
2023/10/15 06:10:12;;;;;;;9.80;6.55;;;;;;;23.59;52.99;100425.59;4983307;28;20053;-58
2023/10/15 06:12:40;;;;;;;8.30;6.88;;;;;;;23.59;52.84;100429.13;4986636;28;20397;-58
2023/10/15 06:15:09;;;;;;;9.05;7.07;;;;;;;23.60;52.59;100430.81;4986829;28;20054;-58
2023/10/15 06:17:36;;;;;;;9.52;7.15;;;;;;;23.62;52.79;100434.19;4985466;28;20077;-58
2023/10/15 06:20:13;;;;;;;8.63;6.93;;;;;;;23.63;53.02;100435.03;4983196;28;20042;-61
2023/10/15 06:22:42;;;;;;;10.75;7.95;;;;;;;23.65;52.68;100428.47;4986394;28;20057;-61
2023/10/15 06:25:14;;;;;;;7.60;6.82;;;;;;;23.67;52.82;100431.84;4986956;28;20046;-62
2023/10/15 06:27:41;;;;;;;8.90;6.88;;;;;;;23.67;53.02;100437.25;4984048;28;20051;-61
2023/10/15 06:30:19;;;;;;;8.82;6.60;;;;;;;23.69;52.88;100437.91;4984860;28;20047;-61
2023/10/15 06:32:52;;;;;;;7.63;6.47;;;;;;;23.71;52.94;100434.22;4981079;28;20051;-61
2023/10/15 06:35:22;;;;;;;9.35;6.88;;;;;;;23.73;53.11;100440.28;4985063;28;20057;-62
2023/10/15 06:37:55;;;;;;;9.23;7.10;;;;;;;23.75;53.16;100440.97;4983592;28;20050;-61
2023/10/15 06:40:24;;;;;;;9.68;7.10;;;;;;;23.75;53.15;100446.38;4986292;28;20046;-58
2023/10/15 06:42:52;;;;;;;9.10;7.22;;;;;;;23.78;53.01;100451.41;4986961;28;20051;-58
2023/10/15 06:45:20;;;;;;;12.65;7.53;;;;;;;23.78;53.25;100451.41;4983386;28;20066;-58
2023/10/15 06:47:51;;;;;;;6.82;6.13;;;;;;;23.80;53.27;100444.00;4983941;28;20047;-58
2023/10/15 06:50:22;;;;;;;9.07;7.45;;;;;;;23.81;53.10;100449.22;4975818;28;20039;-58
2023/10/15 06:52:53;;;;;;;8.35;6.47;;;;;;;23.83;53.28;100441.81;4988872;28;20061;-58
2023/10/15 06:55:21;;;;;;;8.00;6.45;;;;;;;23.84;53.36;100443.50;4988775;28;20506;-58
2023/10/15 06:57:49;;;;;;;7.85;6.25;;;;;;;23.86;53.24;100446.00;4988190;28;20382;-58
2023/10/15 07:00:23;;;;;;;9.63;6.70;;;;;;;23.86;53.30;100451.41;4990790;28;20047;-61
2023/10/15 07:02:52;;;;;;;8.88;6.72;;;;;;;23.87;53.08;100453.97;4989922;28;20050;-62
2023/10/15 07:05:23;;;;;;;9.07;6.32;;;;;;;23.88;53.13;100441.28;4987159;28;20046;-62
2023/10/15 07:07:51;;;;;;;7.65;6.25;;;;;;;23.88;53.09;100442.13;4989969;28;20050;-62
2023/10/15 07:10:19;;;;;;;9.30;6.85;;;;;;;23.89;53.20;100438.41;4992149;28;20417;-61
2023/10/15 07:12:50;;;;;;;7.80;7.00;;;;;;;23.91;53.50;100439.09;5022828;28;20061;-61
2023/10/15 07:15:23;;;;;;;8.38;6.60;;;;;;;23.91;53.09;100451.78;4987557;28;20421;-61
2023/10/15 07:17:51;;;;;;;7.57;6.50;;;;;;;23.91;53.31;100451.78;4983196;28;20046;-62
2023/10/15 07:20:24;;;;;;;6.97;5.60;;;;;;;23.92;53.59;100456.16;4990338;28;21096;-62
2023/10/15 07:22:53;;;;;;;8.52;6.53;;;;;;;23.93;53.72;100453.25;4986928;28;20634;-62
2023/10/15 07:25:24;;;;;;;7.53;6.35;;;;;;;23.93;53.52;100452.44;4989599;28;20050;-62
2023/10/15 07:27:53;;;;;;;8.73;6.85;;;;;;;23.94;53.65;100448.69;4990636;28;20042;-62
2023/10/15 07:30:21;;;;;;;7.97;6.60;;;;;;;23.95;53.79;100446.88;4988991;28;20042;-61
2023/10/15 07:32:53;;;;;;;9.38;6.78;;;;;;;23.95;54.17;100441.47;4986823;28;20046;-62
2023/10/15 07:35:21;;;;;;;8.55;7.05;;;;;;;23.95;53.64;100447.72;4988961;28;20420;-62
2023/10/15 07:37:52;;;;;;;8.77;7.13;;;;;;;23.97;54.07;100447.53;4990163;28;20046;-62
2023/10/15 07:40:22;;;;;;;8.35;6.18;;;;;;;23.96;54.33;100456.66;4988385;28;20065;-61
2023/10/15 07:42:52;;;;;;;12.05;6.60;;;;;;;23.97;54.42;100455.63;4987187;28;20070;-62
2023/10/15 07:45:22;;;;;;;7.05;6.07;;;;;;;23.99;54.49;100459.03;4990174;28;20047;-62
2023/10/15 07:47:50;;;;;;;8.88;6.28;;;;;;;23.98;54.33;100460.03;4990127;28;20045;-62
2023/10/15 07:50:18;;;;;;;11.70;6.30;;;;;;;23.99;54.51;100461.72;4989593;28;20038;-62
2023/10/15 07:52:46;;;;;;;9.30;6.50;;;;;;;24.00;54.60;100463.41;4995197;28;20065;-62
2023/10/15 07:55:14;;;;;;;8.10;6.60;;;;;;;24.00;54.55;100458.00;4995226;28;20050;-62
2023/10/15 07:57:42;;;;;;;9.13;7.07;;;;;;;23.99;54.57;100467.97;4990391;28;20061;-62
2023/10/15 08:00:15;;;;;;;8.25;6.00;;;;;;;24.02;54.71;100461.38;4986383;28;20485;-58
2023/10/15 08:02:45;;;;;;;6.88;6.07;;;;;;;24.02;54.82;100455.97;4988991;28;20073;-58
2023/10/15 08:05:13;;;;;;;10.07;6.93;;;;;;;24.03;54.58;100460.38;4990387;28;20410;-58
2023/10/15 08:07:43;;;;;;;8.63;6.55;;;;;;;24.02;54.76;100467.63;4988697;28;20401;-58
2023/10/15 08:10:11;;;;;;;6.90;6.05;;;;;;;24.03;55.23;100465.78;4985939;28;20058;-58
2023/10/15 08:12:38;;;;;;;7.60;5.82;;;;;;;24.03;55.01;100458.50;4988954;28;20049;-58
2023/10/15 08:15:06;;;;;;;7.78;5.40;;;;;;;24.05;54.55;100461.03;4989907;28;20050;-58
2023/10/15 08:17:34;;;;;;;8.05;5.55;;;;;;;24.05;54.48;100453.75;4988236;28;20054;-58
2023/10/15 08:20:04;;;;;;;9.88;5.68;;;;;;;24.05;54.73;100464.56;4986938;28;20077;-58
2023/10/15 08:22:31;;;;;;;8.32;5.63;;;;;;;24.06;54.56;100466.25;4989649;28;20493;-58
2023/10/15 08:24:59;;;;;;;8.27;5.32;;;;;;;24.07;54.34;100459.00;4989740;28;20090;-58
2023/10/15 08:27:26;;;;;;;6.88;5.22;;;;;;;24.07;54.68;100453.59;4986457;28;20050;-58
2023/10/15 08:29:54;;;;;;;7.15;5.57;;;;;;;24.07;54.63;100454.44;4990243;28;20047;-58
2023/10/15 08:32:21;;;;;;;5.75;4.88;;;;;;;24.08;54.42;100450.72;4989754;28;20042;-58
2023/10/15 08:34:48;;;;;;;6.93;5.43;;;;;;;24.09;54.50;100457.81;4989335;28;20404;-58
2023/10/15 08:37:16;;;;;;;7.55;5.60;;;;;;;24.09;54.54;100449.69;4987777;28;20065;-58
2023/10/15 08:39:43;;;;;;;6.95;4.57;;;;;;;24.10;54.74;100448.66;4985898;28;20481;-58
2023/10/15 08:42:27;;;;;;;6.72;5.10;;;;;;;24.10;54.50;100445.97;4988609;28;20047;-57
2023/10/15 08:45:05;;;;;;;6.57;5.75;;;;;;;24.11;54.68;100442.28;4989759;28;20062;-58
2023/10/15 08:47:34;;;;;;;7.80;5.50;;;;;;;24.12;54.49;100454.75;4990164;28;20055;-58
2023/10/15 08:50:12;;;;;;;8.80;5.32;;;;;;;24.12;54.33;100449.34;4986819;28;20053;-61
2023/10/15 08:52:40;;;;;;;7.95;5.25;;;;;;;24.11;54.83;100442.28;4990693;28;20053;-62
2023/10/15 08:55:09;;;;;;;8.70;6.35;;;;;;;24.13;54.90;100442.91;4993175;28;20041;-62
2023/10/15 08:57:38;;;;;;;7.80;5.75;;;;;;;24.14;55.25;100443.75;4988225;28;20053;-62
2023/10/15 09:00:09;;;;;;;5.80;5.00;;;;;;;24.14;55.02;100438.34;4987735;28;20493;-57
2023/10/15 09:02:57;;;;;;;7.20;5.53;;;;;;;24.14;55.31;100432.94;4986747;28;20038;-58
2023/10/15 09:05:40;;;;;;;9.50;6.63;;;;;;;24.13;55.61;100442.91;4986338;28;20067;-58
2023/10/15 09:08:12;;;;;;;9.35;7.82;;;;;;;24.12;56.28;100435.84;4981959;28;20272;-58
2023/10/15 09:10:42;;;;;;;9.18;7.78;;;;;;;24.11;56.55;100430.59;4987532;28;20046;-52
2023/10/15 09:13:15;;;;;;;11.65;9.07;;;;;;;24.07;56.63;100430.09;4985658;28;20043;-53
2023/10/15 09:15:48;;;;;;;;;;;;;;;24.03;56.89;100431.47;4989020;28;20043;-52
2023/10/15 09:18:16;;;;;;;10.63;8.18;;;;;;;24.01;57.20;100438.91;4988798;28;19993;-53
2023/10/15 09:20:47;;;;;;;13.63;9.20;;;;;;;24.00;57.46;100434.50;4986598;28;20058;-62
2023/10/15 09:23:15;;;;;;;12.02;9.68;;;;;;;23.99;57.86;100440.94;4986792;28;20042;-63
2023/10/15 09:25:43;;;;;;;12.88;8.35;;;;;;;23.94;58.01;100435.19;4980923;28;20054;-63
2023/10/15 09:28:11;;;;;;;10.98;9.20;;;;;;;23.91;57.87;100425.56;4988562;28;20046;-63
2023/10/15 09:30:38;;;;;;;11.50;8.70;;;;;;;23.89;57.79;100432.16;4985642;28;20117;-62
2023/10/15 09:33:12;;;;;;;13.07;9.10;;;;;;;23.85;57.79;100428.94;4986547;28;20142;-62
2023/10/15 09:35:41;;;;;;;13.68;9.35;;;;;;;23.85;58.19;100428.94;4988755;28;20061;-62
2023/10/15 09:38:13;;;;;;;11.43;9.02;;;;;;;23.86;57.87;100435.19;4988325;28;20050;-62
2023/10/15 09:40:44;;;;;;;13.18;9.45;;;;;;;23.84;57.93;100435.38;4984831;28;20057;-63
2023/10/15 09:43:14;;;;;;;13.80;10.10;;;;;;;23.84;58.21;100437.25;4987988;28;20050;-62
2023/10/15 09:45:42;;;;;;;10.43;8.68;;;;;;;23.84;58.39;100443.50;4988179;28;20489;-63
2023/10/15 09:48:10;;;;;;;10.43;9.20;;;;;;;23.84;58.02;100446.19;4986029;28;20050;-63
2023/10/15 09:50:41;;;;;;;12.18;9.38;;;;;;;23.84;58.51;100443.50;4990851;28;20489;-53
2023/10/15 09:53:12;;;;;;;12.38;9.13;;;;;;;23.83;58.17;100446.38;4988280;28;20046;-54
2023/10/15 09:55:40;;;;;;;11.50;8.48;;;;;;;23.82;58.65;100450.94;4990835;28;20042;-49
2023/10/15 09:58:10;;;;;;;11.63;9.18;;;;;;;23.82;58.58;100450.06;4990991;28;20057;-48
2023/10/15 10:03:47;;;;;;;14.27;9.50;;;;;;;23.81;58.59;100446.53;4992035;28;20046;-63
2023/10/15 10:06:33;;;;;;;10.50;9.38;;;;;;;23.81;58.45;100451.94;4984757;28;20053;-63
2023/10/15 10:09:28;;;;;;;10.30;8.15;;;;;;;23.82;58.45;100450.94;4980475;28;20062;-62
2023/10/15 10:12:11;;;;;;;11.93;8.93;;;;;;;23.82;58.43;100444.66;4985620;28;20045;-62
2023/10/15 10:15:08;;;;;;;12.02;9.13;;;;;;;23.81;58.56;100442.97;4988132;28;20046;-63
2023/10/15 10:17:37;;;;;;;10.07;8.90;;;;;;;23.78;58.97;100444.19;4987206;28;20378;-63
2023/10/15 10:20:14;;;;;;;13.18;9.63;;;;;;;23.76;59.34;100437.25;4984288;28;20493;-52
2023/10/15 10:22:56;;;;;;;11.00;8.85;;;;;;;23.77;58.99;100447.88;4987808;28;20061;-51
2023/10/15 10:25:40;;;;;;;12.18;10.32;;;;;;;23.77;59.54;100441.63;4987994;28;20489;-49
2023/10/15 10:28:13;;;;;;;11.60;9.95;;;;;;;23.76;59.44;100443.50;4985882;28;20050;-53
2023/10/15 10:30:58;;;;;;;11.55;9.98;;;;;;;23.77;59.32;100438.94;4984618;28;20050;-52
2023/10/15 10:33:41;;;;;;;15.00;10.77;;;;;;;23.77;59.33;100444.34;4988489;28;20049;-50
2023/10/15 10:36:12;;;;;;;12.10;9.93;;;;;;;23.77;59.35;100442.47;4987533;28;20046;-48
2023/10/15 10:38:40;;;;;;;13.15;11.32;;;;;;;23.78;59.27;100435.19;4987815;28;20053;-55
2023/10/15 10:41:16;;;;;;;14.05;10.35;;;;;;;23.77;59.30;100433.53;4987118;28;20054;-62
2023/10/15 10:43:48;;;;;;;13.02;10.07;;;;;;;23.76;59.29;100434.53;4985305;28;20039;-60
2023/10/15 10:46:22;;;;;;;10.95;9.32;;;;;;;23.78;59.37;100427.09;4987815;28;20054;-60
2023/10/15 10:49:07;;;;;;;11.57;9.88;;;;;;;23.79;59.71;100423.41;4987962;28;20053;-53
2023/10/15 10:51:34;;;;;;;13.05;9.55;;;;;;;23.80;59.36;100431.31;4982318;28;20046;-47
2023/10/15 10:54:04;;;;;;;10.90;9.80;;;;;;;23.83;59.40;100422.88;4988419;28;20062;-48
2023/10/15 10:56:38;;;;;;;11.77;9.32;;;;;;;23.85;59.55;100428.09;4989157;28;20587;-48
2023/10/15 10:59:06;;;;;;;12.18;10.90;;;;;;;23.85;59.52;100420.84;4990610;28;20042;-59
2023/10/15 11:01:38;;;;;;;13.60;9.82;;;;;;;23.86;59.37;100418.97;4986227;28;20059;-59
2023/10/15 11:04:06;;;;;;;13.98;9.52;;;;;;;23.87;59.19;100417.97;4988189;28;20046;-59
2023/10/15 11:06:39;;;;;;;10.57;8.85;;;;;;;23.88;59.33;100411.56;4987796;28;20054;-59
2023/10/15 11:09:16;;;;;;;10.15;8.43;;;;;;;23.88;59.37;100417.81;4984457;28;20489;-52
2023/10/15 11:11:53;;;;;;;11.45;9.60;;;;;;;23.90;59.04;100409.50;4988284;28;20489;-48
2023/10/15 11:14:27;;;;;;;12.48;9.10;;;;;;;23.91;59.15;100412.06;4983122;28;20042;-49
2023/10/15 11:16:56;;;;;;;13.57;10.25;;;;;;;23.92;59.30;100405.63;4984898;28;20046;-49
2023/10/15 11:19:30;;;;;;;11.80;9.85;;;;;;;23.92;59.12;100405.63;4987162;28;20051;-49
2023/10/15 11:21:58;;;;;;;12.43;9.43;;;;;;;23.93;59.18;100399.19;4988471;28;20073;-51
2023/10/15 11:24:28;;;;;;;10.57;8.55;;;;;;;23.93;59.34;100393.78;4987690;28;20053;-48
2023/10/15 11:26:56;;;;;;;11.40;9.38;;;;;;;23.96;58.87;100397.19;4984395;28;20382;-49
2023/10/15 11:29:24;;;;;;;10.27;8.68;;;;;;;23.96;58.98;100395.31;4989596;28;20050;-48
2023/10/15 11:31:57;;;;;;;10.30;8.82;;;;;;;23.97;58.57;100397.00;4988128;28;20038;-50
2023/10/15 11:34:27;;;;;;;;;;;;;;;23.95;59.00;100401.75;4986459;28;20390;-48
2023/10/15 11:36:55;;;;;;;9.73;8.68;;;;;;;23.97;58.66;100405.09;4985326;28;19922;-49
2023/10/15 11:40:12;;;;;;;8.82;7.88;;;;;;;23.98;58.49;100403.25;4988038;28;20053;-50
2023/10/15 11:42:14;;;;;;;10.38;8.25;;;;;;;24.00;58.45;100403.94;4990926;28;20054;-48
2023/10/15 11:44:44;;;;;;;9.07;8.07;;;;;;;24.00;58.81;100399.34;4987981;28;20043;-48
2023/10/15 11:47:16;;;;;;;11.90;9.38;;;;;;;24.00;58.81;100393.13;4991696;28;20073;-49
2023/10/15 11:49:45;;;;;;;11.60;8.68;;;;;;;24.00;58.56;100398.53;4991125;28;20053;-48
2023/10/15 11:52:22;;;;;;;13.40;8.63;;;;;;;24.01;58.46;100395.63;4991312;28;20054;-49
2023/10/15 11:54:50;;;;;;;9.63;8.38;;;;;;;24.02;58.35;100394.59;4990471;28;20046;-49
2023/10/15 11:57:26;;;;;;;9.30;8.38;;;;;;;24.03;58.23;100388.19;4990960;28;20038;-49
2023/10/15 11:59:54;;;;;;;9.73;8.30;;;;;;;24.03;58.30;100388.19;4994214;28;20053;-49
2023/10/15 12:02:25;;;;;;;9.27;8.38;;;;;;;24.04;58.38;100392.59;4991550;28;20049;-49
2023/10/15 12:04:56;;;;;;;12.15;8.32;;;;;;;24.05;58.14;100391.56;4990810;28;20046;-52
2023/10/15 12:07:28;;;;;;;11.10;7.82;;;;;;;24.05;57.86;100386.16;4990851;28;20417;-48
2023/10/15 12:09:57;;;;;;;10.98;8.13;;;;;;;24.05;57.68;100386.16;4988849;28;20050;-59